Time;durP1;ratioP1;P1;durP2;ratioP2;P2;SDS_P1;SDS_P2;PMS_P1;PMS_P2;Temp;Humidity;BMP_temperature;BMP_pressure;BME280_temperature;BME280_humidity;BME280_pressure;Samples;Min_cycle;Max_cycle;Signal;HPM_P1;HPM_P2
2020/12/05 00:02:05;;;;;;;48.10;25.95;;;;;;;5.83;71.82;99045.41;126613;1098;23470;-73
2020/12/05 00:04:33;;;;;;;51.33;27.25;;;;;;;5.86;71.92;99042.30;126655;1098;23585;-73
2020/12/05 00:07:02;;;;;;;45.65;25.30;;;;;;;5.92;71.83;99038.83;126605;1098;28050;-71
2020/12/05 00:09:30;;;;;;;40.05;24.67;;;;;;;5.98;71.39;99031.01;126736;1099;23360;-71
2020/12/05 00:12:10;;;;;;;40.38;23.30;;;;;;;6.02;71.79;99035.01;126713;1098;23376;-72
2020/12/05 00:14:54;;;;;;;50.28;29.10;;;;;;;6.05;71.42;99040.84;126693;1098;26853;-71
2020/12/05 00:17:23;;;;;;;35.43;22.58;;;;;;;6.07;71.06;99035.25;126807;1098;23376;-72
2020/12/05 00:19:51;;;;;;;37.37;21.63;;;;;;;6.11;71.33;99036.53;126761;1098;26981;-73
2020/12/05 00:22:19;;;;;;;47.33;24.83;;;;;;;6.16;71.73;99038.66;126753;1098;23329;-72
2020/12/05 00:24:47;;;;;;;39.45;23.32;;;;;;;6.18;71.42;99045.55;126764;1098;23219;-72
2020/12/05 00:27:20;;;;;;;32.90;17.60;;;;;;;6.19;71.15;99044.53;126713;1098;25093;-71
2020/12/05 00:29:48;;;;;;;38.67;22.30;;;;;;;6.21;71.36;99042.46;126723;1098;25036;-72
2020/12/05 00:32:16;;;;;;;38.40;19.50;;;;;;;6.23;71.00;99044.95;126719;1098;26402;-73
2020/12/05 00:34:45;;;;;;;39.55;22.15;;;;;;;6.23;71.01;99039.53;126746;1098;25200;-73
2020/12/05 00:37:13;;;;;;;41.92;25.77;;;;;;;6.22;70.63;99044.12;126799;1098;23321;-71
2020/12/05 00:39:41;;;;;;;45.58;24.57;;;;;;;6.21;70.63;99042.46;126778;1098;23376;-72
2020/12/05 00:42:09;;;;;;;42.88;23.45;;;;;;;6.22;71.08;99033.29;126713;1098;23444;-72
2020/12/05 00:44:38;;;;;;;39.73;22.90;;;;;;;6.21;71.49;99042.46;126733;1098;23329;-73
2020/12/05 00:47:06;;;;;;;47.40;25.55;;;;;;;6.22;71.02;99037.88;126753;1098;26490;-72
2020/12/05 00:49:34;;;;;;;45.33;22.87;;;;;;;6.21;71.19;99028.92;126693;1098;26622;-73
2020/12/05 00:52:02;;;;;;;40.93;21.17;;;;;;;6.22;70.64;99044.12;126692;1098;23418;-74
2020/12/05 00:54:32;;;;;;;40.12;22.75;;;;;;;6.25;71.57;99034.77;126675;1098;23336;-74
2020/12/05 00:57:01;;;;;;;34.13;19.45;;;;;;;6.28;71.22;99042.52;126713;1098;26433;-74
2020/12/05 00:59:29;;;;;;;33.75;20.65;;;;;;;6.31;70.72;99052.94;126792;1098;23428;-72
2020/12/05 01:01:57;;;;;;;36.75;22.17;;;;;;;6.33;71.18;99050.88;126691;1098;23363;-72
2020/12/05 01:04:29;;;;;;;;;;;;;;;6.34;71.10;99053.39;126734;1098;23390;-74
2020/12/05 01:06:58;;;;;;;41.30;22.58;;;;;;;6.31;70.98;99058.36;126792;1098;21502;-74
2020/12/05 01:09:26;;;;;;;44.30;24.18;;;;;;;6.31;70.62;99050.23;126668;1098;23336;-72
2020/12/05 01:11:55;;;;;;;40.65;24.10;;;;;;;6.32;71.24;99050.05;126541;1098;23372;-74
2020/12/05 01:14:23;;;;;;;42.40;23.12;;;;;;;6.34;71.22;99034.44;126641;1098;23345;-74
2020/12/05 01:16:52;;;;;;;33.55;20.85;;;;;;;6.37;71.21;99037.78;126646;1098;27530;-73
2020/12/05 01:19:20;;;;;;;58.38;28.85;;;;;;;6.37;71.15;99027.78;126698;1098;26401;-72
2020/12/05 01:21:48;;;;;;;42.93;23.03;;;;;;;6.39;71.10;99035.72;126779;1098;23419;-72
2020/12/05 01:24:16;;;;;;;49.00;24.60;;;;;;;6.36;71.17;99033.39;126712;1098;24959;-73
2020/12/05 01:26:44;;;;;;;48.92;25.02;;;;;;;6.36;70.94;99027.97;126713;1098;23323;-72
2020/12/05 01:29:12;;;;;;;62.90;30.17;;;;;;;6.34;71.20;99023.60;126738;1098;24827;-72
2020/12/05 01:31:40;;;;;;;41.83;22.97;;;;;;;6.33;70.58;99030.04;126788;1098;23392;-73
2020/12/05 01:34:09;;;;;;;47.58;25.88;;;;;;;6.33;70.66;99026.50;126733;1098;25097;-73
2020/12/05 01:36:43;;;;;;;40.05;22.85;;;;;;;6.33;71.33;99021.08;126690;1098;23373;-73
2020/12/05 01:39:13;;;;;;;42.43;22.50;;;;;;;6.33;71.13;99018.37;126766;1098;23420;-73
2020/12/05 01:41:41;;;;;;;33.85;19.92;;;;;;;6.31;70.44;99021.27;126723;1098;23329;-73
2020/12/05 01:44:09;;;;;;;38.73;22.15;;;;;;;6.28;70.63;99018.14;126774;1098;26554;-72
2020/12/05 01:46:40;;;;;;;41.98;23.18;;;;;;;6.28;70.83;99005.43;126703;1098;23463;-72
2020/12/05 01:49:12;;;;;;;40.00;20.37;;;;;;;6.27;71.59;99003.77;126701;1099;26427;-74
2020/12/05 01:51:41;;;;;;;35.15;19.07;;;;;;;6.26;71.25;98996.66;126725;1098;23352;-74
2020/12/05 01:54:11;;;;;;;36.70;21.07;;;;;;;6.25;71.25;98986.02;126729;1098;23433;-74
2020/12/05 01:56:45;;;;;;;31.50;19.20;;;;;;;6.27;71.42;98995.64;126819;1098;23462;-73
2020/12/05 01:59:13;;;;;;;32.78;18.05;;;;;;;6.26;71.69;98996.66;126734;1098;26804;-74
2020/12/05 02:01:44;;;;;;;26.97;17.12;;;;;;;6.29;71.14;98981.89;126753;1098;23324;-74
2020/12/05 02:04:13;;;;;;;38.80;21.75;;;;;;;6.32;71.65;98995.05;126805;1098;23388;-72
2020/12/05 02:07:21;;;;;;;29.67;18.35;;;;;;;6.32;71.57;99001.30;126729;1098;23487;-74
2020/12/05 02:09:53;;;;;;;31.82;19.20;;;;;;;6.34;70.75;98987.56;126741;1098;23392;-73
2020/12/05 02:12:38;;;;;;;39.00;20.43;;;;;;;6.39;71.34;98995.09;126741;1098;23353;-74
2020/12/05 02:15:11;;;;;;;36.77;22.22;;;;;;;6.41;71.47;98995.73;126785;1098;26858;-73
2020/12/05 02:17:50;;;;;;;32.98;19.95;;;;;;;6.42;70.67;98991.97;126782;1098;24833;-72
2020/12/05 02:20:19;;;;;;;34.90;20.08;;;;;;;6.42;71.27;99000.95;126696;1098;23361;-73
2020/12/05 02:22:51;;;;;;;31.30;19.43;;;;;;;6.45;70.96;98999.72;126728;1098;26405;-73
2020/12/05 02:25:20;;;;;;;32.90;18.82;;;;;;;6.49;70.84;98995.59;126718;1098;23470;-73
2020/12/05 02:27:49;;;;;;;30.40;18.60;;;;;;;6.52;70.61;99006.02;126755;1098;23340;-73
2020/12/05 02:30:17;;;;;;;30.30;18.87;;;;;;;6.56;71.25;99006.46;126715;1098;23462;-73
2020/12/05 02:32:45;;;;;;;35.08;20.57;;;;;;;6.60;71.42;98997.73;126727;1098;23440;-72
2020/12/05 02:35:14;;;;;;;27.67;18.32;;;;;;;6.61;70.92;98993.97;126696;1098;23392;-74
2020/12/05 02:37:43;;;;;;;33.28;18.70;;;;;;;6.66;70.66;98996.94;126774;1098;23390;-73
2020/12/05 02:40:12;;;;;;;27.52;17.40;;;;;;;6.72;71.09;98995.28;126740;1098;23330;-73
2020/12/05 02:42:40;;;;;;;35.15;19.45;;;;;;;6.75;71.26;99003.03;126700;1098;23419;-73
2020/12/05 02:45:09;;;;;;;31.48;17.65;;;;;;;6.79;71.03;99011.61;126628;1098;23266;-73
2020/12/05 02:47:38;;;;;;;28.98;17.57;;;;;;;6.83;70.70;99008.30;126778;1098;23469;-73
2020/12/05 02:50:06;;;;;;;28.85;18.90;;;;;;;6.87;70.75;98990.59;126618;1098;23376;-73
2020/12/05 02:52:35;;;;;;;27.80;16.45;;;;;;;6.93;70.48;98999.77;126774;1098;23387;-74
2020/12/05 02:55:03;;;;;;;32.48;20.02;;;;;;;7.00;70.48;98997.95;126752;1098;27830;-73
2020/12/05 02:57:31;;;;;;;24.55;16.15;;;;;;;7.04;71.29;98998.36;126752;1098;23475;-73
2020/12/05 03:00:01;;;;;;;30.27;17.52;;;;;;;7.07;70.62;98998.80;126683;1098;23321;-73
2020/12/05 03:02:29;;;;;;;29.47;17.40;;;;;;;7.11;70.26;98989.23;126746;1098;23363;-74
2020/12/05 03:04:57;;;;;;;31.30;19.95;;;;;;;7.15;70.60;98995.92;126688;1098;23379;-73
2020/12/05 03:07:25;;;;;;;29.52;16.90;;;;;;;7.16;70.22;98978.59;126749;1098;26847;-73
2020/12/05 03:09:54;;;;;;;27.35;17.32;;;;;;;7.19;70.43;98980.09;126668;1098;23463;-74
2020/12/05 03:12:23;;;;;;;26.00;15.58;;;;;;;7.20;69.98;98979.04;126761;1098;26562;-74
2020/12/05 03:14:51;;;;;;;24.63;15.53;;;;;;;7.21;70.56;98979.87;126701;1098;26522;-73
2020/12/05 03:17:19;;;;;;;23.02;15.48;;;;;;;7.21;69.99;98990.72;126678;1098;23332;-73
2020/12/05 03:19:47;;;;;;;29.27;16.93;;;;;;;7.24;70.15;98979.48;126662;1098;27404;-73
2020/12/05 03:22:16;;;;;;;30.07;19.03;;;;;;;7.28;70.31;98975.31;126553;1098;23433;-75
2020/12/05 03:24:46;;;;;;;24.32;16.45;;;;;;;7.29;70.15;98969.67;126612;1098;23379;-73
2020/12/05 03:27:14;;;;;;;21.60;14.00;;;;;;;7.32;69.94;98979.30;126776;1098;23345;-74
2020/12/05 03:29:43;;;;;;;22.90;15.28;;;;;;;7.33;69.44;98978.25;126770;1098;23390;-73
2020/12/05 03:32:17;;;;;;;24.55;15.65;;;;;;;7.34;70.25;98993.50;126738;1098;23391;-74
2020/12/05 03:34:45;;;;;;;25.80;16.05;;;;;;;7.36;70.01;99002.23;126757;1098;23376;-74
2020/12/05 03:37:13;;;;;;;25.57;15.72;;;;;;;7.40;69.99;98994.53;126804;1098;23474;-75
2020/12/05 03:39:42;;;;;;;22.55;14.53;;;;;;;7.42;69.83;98996.00;126732;1098;23462;-73
2020/12/05 03:42:10;;;;;;;19.87;13.50;;;;;;;7.45;69.34;98994.78;126685;1098;23387;-73
2020/12/05 03:44:39;;;;;;;30.62;16.10;;;;;;;7.45;70.04;98992.89;126722;1098;23329;-74
2020/12/05 03:47:07;;;;;;;23.42;15.15;;;;;;;7.49;69.87;99009.58;126753;1098;23425;-74
2020/12/05 03:49:36;;;;;;;25.80;15.45;;;;;;;7.53;69.35;99008.13;126835;1098;28239;-72
2020/12/05 03:52:05;;;;;;;22.10;13.60;;;;;;;7.59;70.00;99001.89;126754;1098;23325;-72
2020/12/05 03:54:33;;;;;;;26.12;16.05;;;;;;;7.64;69.70;98998.55;126762;1098;23379;-73
2020/12/05 03:57:02;;;;;;;23.22;15.95;;;;;;;7.67;69.68;99017.16;126780;1098;23542;-73
2020/12/05 03:59:30;;;;;;;24.77;14.87;;;;;;;7.69;68.97;99015.08;126772;1098;23412;-75
2020/12/05 04:01:59;;;;;;;20.90;14.20;;;;;;;7.70;69.54;99014.02;126819;1098;23333;-72
2020/12/05 04:04:28;;;;;;;17.60;11.70;;;;;;;7.74;69.42;99015.28;126759;1098;23329;-72
2020/12/05 04:06:57;;;;;;;23.12;14.45;;;;;;;7.78;68.93;99008.41;126807;1098;23321;-74
2020/12/05 04:09:26;;;;;;;19.12;13.18;;;;;;;7.78;69.00;99009.23;126712;1098;26517;-72
2020/12/05 04:11:54;;;;;;;22.77;14.30;;;;;;;7.81;69.02;99005.30;126549;1098;23376;-75
2020/12/05 04:14:22;;;;;;;21.02;14.20;;;;;;;7.83;69.36;98986.06;126571;1098;23317;-73
2020/12/05 04:16:50;;;;;;;23.15;12.82;;;;;;;7.84;69.13;98985.03;126517;1098;23288;-76
2020/12/05 04:19:19;;;;;;;21.05;14.23;;;;;;;7.90;69.29;98989.63;126540;1098;23403;-72
2020/12/05 04:21:49;;;;;;;20.77;13.40;;;;;;;7.93;68.61;98991.92;126608;1098;27896;-72
2020/12/05 04:24:17;;;;;;;25.20;14.23;;;;;;;7.95;68.99;98992.55;126698;1098;23385;-74
2020/12/05 04:26:45;;;;;;;21.45;12.43;;;;;;;8.00;68.36;98997.36;126768;1098;23463;-74
2020/12/05 04:29:14;;;;;;;20.70;14.23;;;;;;;8.03;68.89;98996.95;126716;1098;23463;-74
2020/12/05 04:31:42;;;;;;;20.23;12.73;;;;;;;8.07;69.02;98999.04;126732;1098;24053;-74
2020/12/05 04:34:10;;;;;;;15.85;11.38;;;;;;;8.12;68.52;98992.98;126775;1098;23319;-74
2020/12/05 04:36:38;;;;;;;16.25;11.03;;;;;;;8.15;68.21;99001.55;126753;1098;23330;-74
2020/12/05 04:39:06;;;;;;;16.67;10.55;;;;;;;8.18;68.47;99001.13;126723;1098;26801;-75
2020/12/05 04:41:34;;;;;;;20.60;12.60;;;;;;;8.21;68.36;98997.14;126781;1098;23321;-73
2020/12/05 04:44:03;;;;;;;18.52;12.60;;;;;;;8.23;68.61;99005.92;126679;1098;23489;-72
2020/12/05 04:46:32;;;;;;;19.55;12.88;;;;;;;8.25;67.66;99003.00;126714;1098;23325;-73
2020/12/05 04:49:00;;;;;;;17.45;11.85;;;;;;;8.28;67.76;99016.16;126759;1099;23362;-72
2020/12/05 04:51:38;;;;;;;21.87;13.98;;;;;;;8.29;68.25;99018.67;126703;1098;23362;-72
2020/12/05 04:54:07;;;;;;;24.75;14.45;;;;;;;8.28;68.16;99017.02;126731;1098;26833;-72
2020/12/05 04:56:39;;;;;;;18.10;10.55;;;;;;;8.29;68.10;99012.41;126475;1098;23325;-73
2020/12/05 04:59:11;;;;;;;19.27;12.18;;;;;;;8.29;67.83;99015.95;126491;1098;23372;-72
2020/12/05 05:01:39;;;;;;;22.48;13.98;;;;;;;8.30;68.30;99014.06;126528;1098;23421;-73
2020/12/05 05:04:07;;;;;;;19.98;12.95;;;;;;;8.31;67.92;99019.30;126454;1098;27920;-73
2020/12/05 05:06:36;;;;;;;21.50;13.65;;;;;;;8.34;67.54;99032.48;126729;1098;23389;-71
2020/12/05 05:09:05;;;;;;;25.10;15.45;;;;;;;8.36;68.11;99027.67;126760;1098;25080;-71
2020/12/05 05:11:36;;;;;;;23.83;13.15;;;;;;;8.37;67.05;99031.22;126702;1099;27590;-71
2020/12/05 05:14:13;;;;;;;27.25;15.03;;;;;;;8.37;67.83;99032.05;126690;1098;24902;-71
2020/12/05 05:16:42;;;;;;;23.05;15.30;;;;;;;8.37;67.35;99032.05;126689;1099;23325;-71
2020/12/05 05:19:23;;;;;;;22.97;13.23;;;;;;;8.39;67.16;99034.56;126700;1098;23464;-71
2020/12/05 05:21:52;;;;;;;18.90;11.95;;;;;;;8.42;67.86;99045.03;126659;1098;23386;-70
2020/12/05 05:24:22;;;;;;;24.00;13.70;;;;;;;8.45;67.46;99043.77;126746;1098;26875;-70
2020/12/05 05:27:08;;;;;;;19.75;13.72;;;;;;;8.48;67.16;99048.81;126664;1098;23306;-70
2020/12/05 05:29:44;;;;;;;19.55;13.90;;;;;;;8.49;67.55;99050.47;126731;1099;23327;-70
2020/12/05 05:32:28;;;;;;;17.50;12.80;;;;;;;8.50;66.82;99042.11;126702;1098;23392;-72
2020/12/05 05:35:15;;;;;;;19.17;13.32;;;;;;;8.52;66.91;99044.62;126770;1098;26827;-69
2020/12/05 05:37:44;;;;;;;19.42;11.33;;;;;;;8.54;67.37;99047.97;126761;1098;26411;-70
2020/12/05 05:40:14;;;;;;;17.75;12.58;;;;;;;8.57;67.17;99048.36;126711;1098;23338;-73
2020/12/05 05:42:42;;;;;;;25.08;13.35;;;;;;;8.59;66.95;99054.43;126726;1098;26785;-71
2020/12/05 05:45:26;;;;;;;73.47;34.67;;;;;;;8.61;67.24;99056.12;126315;1100;23425;-70
2020/12/05 05:48:03;;;;;;;28.67;17.12;;;;;;;8.62;67.14;99055.05;126678;1098;23325;-70
2020/12/05 05:50:34;;;;;;;18.10;13.05;;;;;;;8.63;67.28;99056.74;126737;1098;23396;-71
2020/12/05 05:53:08;;;;;;;;;;;;;;;8.65;67.07;99065.52;126800;1099;23321;-70
2020/12/05 05:55:48;;;;;;;20.60;12.60;;;;;;;8.67;67.67;99075.13;126796;1098;21493;-70
2020/12/05 05:58:20;;;;;;;17.33;12.00;;;;;;;8.72;66.98;99077.22;126803;1098;23527;-70
2020/12/05 06:00:53;;;;;;;15.90;10.27;;;;;;;8.76;67.52;99090.17;126743;1098;23460;-70
2020/12/05 06:03:28;;;;;;;19.77;13.15;;;;;;;8.83;66.76;99070.30;126764;1098;25134;-71
2020/12/05 06:05:59;;;;;;;17.85;11.68;;;;;;;8.85;67.00;99088.07;126736;1098;23390;-71
2020/12/05 06:08:29;;;;;;;18.60;12.00;;;;;;;8.87;66.38;99094.13;126819;1098;23376;-71
2020/12/05 06:11:11;;;;;;;15.38;11.63;;;;;;;8.92;66.86;99093.53;126650;1099;23340;-70
2020/12/05 06:13:40;;;;;;;19.00;12.53;;;;;;;8.94;66.77;99105.00;126799;1098;23333;-70
2020/12/05 06:16:09;;;;;;;19.42;13.03;;;;;;;8.95;65.93;99095.81;126683;1098;24912;-70
2020/12/05 06:18:37;;;;;;;22.13;12.87;;;;;;;8.97;66.02;99113.58;126718;1098;23489;-69
2020/12/05 06:21:05;;;;;;;19.77;12.03;;;;;;;8.98;66.50;99125.29;126698;1098;24284;-69
2020/12/05 06:23:48;;;;;;;24.27;13.05;;;;;;;9.00;66.58;99134.08;126793;1098;23322;-70
2020/12/05 06:26:30;;;;;;;17.30;12.25;;;;;;;9.00;66.26;99139.52;126826;1098;23308;-71
2020/12/05 06:29:06;;;;;;;15.33;11.83;;;;;;;9.00;66.03;99131.36;126750;1098;26946;-71
2020/12/05 06:31:43;;;;;;;16.42;11.75;;;;;;;9.01;66.01;99127.61;126708;1099;23332;-72
2020/12/05 06:34:33;;;;;;;16.97;10.28;;;;;;;9.01;66.50;99130.33;126689;1098;23336;-72
2020/12/05 06:37:03;;;;;;;15.13;11.65;;;;;;;9.02;66.17;99137.42;126743;1098;23383;-72
2020/12/05 06:39:32;;;;;;;17.02;12.00;;;;;;;9.02;66.49;99142.86;126727;1098;27896;-70
2020/12/05 06:42:00;;;;;;;29.70;17.15;;;;;;;9.03;66.49;99144.55;126602;1098;26817;-74
2020/12/05 06:44:31;;;;;;;18.25;13.15;;;;;;;9.08;65.87;99152.91;126770;1098;23363;-71
2020/12/05 06:47:04;;;;;;;18.75;12.90;;;;;;;9.05;65.86;99158.78;126620;1098;23374;-70
2020/12/05 06:49:38;;;;;;;20.70;14.58;;;;;;;9.07;65.80;99162.13;126707;1098;23322;-71
2020/12/05 06:52:24;;;;;;;19.30;13.55;;;;;;;9.09;65.93;99160.03;126746;1099;23314;-73
2020/12/05 06:55:16;;;;;;;15.58;10.78;;;;;;;9.14;66.25;99164.84;126586;1098;23324;-79
2020/12/05 06:57:44;;;;;;;15.15;11.20;;;;;;;9.15;66.00;99164.63;126460;1098;23332;-75
2020/12/05 07:00:31;;;;;;;18.27;12.05;;;;;;;9.18;65.54;99160.65;126591;1098;23421;-71
2020/12/05 07:03:10;;;;;;;19.37;11.53;;;;;;;9.21;65.90;99162.93;126788;1098;23785;-72
2020/12/05 07:05:48;;;;;;;15.55;11.48;;;;;;;9.24;65.77;99156.22;126664;1098;23336;-69
2020/12/05 07:08:28;;;;;;;15.30;11.00;;;;;;;9.27;65.64;99161.26;126669;1098;23359;-70
2020/12/05 07:11:16;;;;;;;16.45;13.32;;;;;;;9.32;65.30;99156.83;126802;1098;23720;-71
2020/12/05 07:13:48;;;;;;;16.30;11.48;;;;;;;9.36;65.65;99159.97;126776;1098;23392;-74
2020/12/05 07:16:28;;;;;;;16.83;10.20;;;;;;;9.40;65.38;99161.22;126618;1098;24810;-73
2020/12/05 07:18:59;;;;;;;19.98;13.30;;;;;;;9.46;65.16;99154.93;126567;1098;23325;-77
2020/12/05 07:21:30;;;;;;;22.10;13.30;;;;;;;9.49;64.57;99164.55;126576;1098;23442;-75
2020/12/05 07:23:58;;;;;;;18.05;10.55;;;;;;;9.53;65.11;99163.91;126689;1098;25447;-72
2020/12/05 07:26:27;;;;;;;15.20;11.10;;;;;;;9.60;65.10;99161.16;126719;1098;23463;-73
2020/12/05 07:28:57;;;;;;;19.75;10.80;;;;;;;9.66;64.77;99154.03;126701;1098;23379;-71
2020/12/05 07:31:26;;;;;;;21.15;12.82;;;;;;;9.75;64.94;99163.62;126722;1098;23508;-74
2020/12/05 07:33:55;;;;;;;13.85;10.05;;;;;;;9.81;64.53;99157.31;126718;1098;23390;-73
2020/12/05 07:36:23;;;;;;;69.37;35.83;;;;;;;9.85;63.83;99155.00;126641;1098;23388;-72
2020/12/05 07:38:52;;;;;;;74.70;47.75;;;;;;;9.87;63.99;99166.52;126743;1098;27691;-74
2020/12/05 07:41:21;;;;;;;25.20;16.17;;;;;;;9.90;63.58;99150.59;126734;1098;26648;-73
2020/12/05 07:43:56;;;;;;;22.67;13.90;;;;;;;9.95;64.08;99164.38;126753;1098;23339;-73
2020/12/05 07:46:24;;;;;;;16.85;12.03;;;;;;;9.97;63.55;99162.28;126693;1098;23463;-78
2020/12/05 07:48:53;;;;;;;24.52;16.10;;;;;;;9.99;63.27;99168.35;126727;1098;23375;-78
2020/12/05 07:51:21;;;;;;;20.95;13.03;;;;;;;9.83;63.49;99147.04;126670;1098;23357;-76
2020/12/05 07:53:52;;;;;;;32.17;12.65;;;;;;;10.06;63.30;99181.11;126762;1098;23840;-79
2020/12/05 07:56:25;;;;;;;18.02;11.45;;;;;;;10.08;63.38;99193.45;126669;1098;23373;-74
2020/12/05 07:58:56;;;;;;;19.00;12.60;;;;;;;10.07;63.05;99193.66;126759;1098;23379;-72
2020/12/05 08:01:57;;;;;;;21.12;12.10;;;;;;;10.11;63.20;99219.43;126747;1098;25226;-75
2020/12/05 08:04:48;;;;;;;31.90;19.35;;;;;;;10.09;63.17;99208.77;126629;1098;23329;-77
2020/12/05 08:07:35;;;;;;;25.90;14.68;;;;;;;10.07;63.20;99199.11;126682;1098;23325;-75
2020/12/05 08:10:13;;;;;;;23.43;13.00;;;;;;;10.07;63.03;99218.19;126753;1098;26900;-76
2020/12/05 08:13:24;;;;;;;15.80;10.80;;;;;;;10.05;63.25;99217.56;126673;1098;23333;-76
2020/12/05 08:16:08;;;;;;;17.03;11.03;;;;;;;10.07;63.90;99229.95;126791;1098;23311;-75
2020/12/05 08:18:37;;;;;;;16.00;11.33;;;;;;;10.08;63.48;99234.33;126705;1098;23428;-77
2020/12/05 08:21:06;;;;;;;15.60;10.80;;;;;;;10.11;63.93;99239.33;126749;1098;23383;-75
2020/12/05 08:23:40;;;;;;;20.25;12.25;;;;;;;10.15;63.65;99245.20;126812;1098;23321;-75
2020/12/05 08:26:18;;;;;;;16.15;11.33;;;;;;;10.16;63.37;99246.89;126849;1098;23325;-78
2020/12/05 08:28:48;;;;;;;20.88;13.35;;;;;;;10.17;63.29;99243.09;126363;1099;23379;-74
2020/12/05 08:31:17;;;;;;;25.60;13.93;;;;;;;10.19;63.57;99240.98;126738;1098;23436;-77
2020/12/05 08:33:48;;;;;;;34.20;20.60;;;;;;;10.19;63.48;99236.37;126728;1098;23333;-75
2020/12/05 08:36:22;;;;;;;32.87;23.07;;;;;;;10.23;63.21;99250.41;126661;1098;23352;-74
2020/12/05 08:38:56;;;;;;;35.92;21.15;;;;;;;10.28;62.93;99252.48;126719;1098;23325;-74
2020/12/05 08:41:25;;;;;;;40.67;20.65;;;;;;;10.29;63.61;99257.76;126592;1098;27153;-75
2020/12/05 08:43:53;;;;;;;25.97;14.18;;;;;;;10.32;63.17;99246.41;126720;1098;23392;-74
2020/12/05 08:46:23;;;;;;;23.77;15.88;;;;;;;10.35;62.87;99256.89;126639;1098;23360;-73
2020/12/05 08:48:52;;;;;;;22.37;14.37;;;;;;;10.40;63.23;99264.41;126692;1098;23373;-74
2020/12/05 08:51:29;;;;;;;21.23;13.08;;;;;;;10.44;63.26;99262.93;126718;1099;23411;-73
2020/12/05 08:54:07;;;;;;;19.67;14.00;;;;;;;10.47;62.78;99278.84;126788;1098;23328;-73
2020/12/05 08:56:35;;;;;;;20.25;13.68;;;;;;;10.49;62.63;99265.00;126745;1099;23321;-76
2020/12/05 08:59:05;;;;;;;32.98;21.62;;;;;;;10.53;62.84;99271.69;126690;1098;25105;-77
2020/12/05 09:01:36;;;;;;;19.37;14.87;;;;;;;10.58;62.71;99270.00;126702;1098;23333;-76
2020/12/05 09:04:04;;;;;;;23.95;14.40;;;;;;;10.64;62.99;99276.45;126704;1098;23794;-75
2020/12/05 09:06:33;;;;;;;18.87;11.93;;;;;;;10.70;62.89;99286.48;126787;1098;23393;-75
2020/12/05 09:09:01;;;;;;;22.85;14.65;;;;;;;10.77;62.80;99292.73;126706;1098;23321;-75
2020/12/05 09:11:30;;;;;;;20.68;12.37;;;;;;;10.83;62.26;99296.48;126707;1098;23427;-75
2020/12/05 09:13:58;;;;;;;18.90;13.13;;;;;;;10.89;62.16;99303.80;126707;1099;23327;-76
2020/12/05 09:16:34;;;;;;;18.07;11.13;;;;;;;10.94;61.66;99308.59;126687;1098;23428;-75
2020/12/05 09:19:02;;;;;;;19.50;12.50;;;;;;;10.96;61.59;99303.75;126723;1099;23390;-75
2020/12/05 09:21:36;;;;;;;15.53;12.33;;;;;;;10.99;61.78;99306.06;126702;1098;27224;-75
2020/12/05 09:24:05;;;;;;;18.48;13.78;;;;;;;11.00;61.95;99313.17;126717;1098;23469;-75
2020/12/05 09:26:33;;;;;;;35.63;25.90;;;;;;;11.00;61.69;99304.98;126705;1099;23328;-75
2020/12/05 09:29:02;;;;;;;19.15;14.55;;;;;;;10.99;61.76;99308.78;126736;1098;23764;-76
2020/12/05 09:31:30;;;;;;;17.52;11.53;;;;;;;11.01;61.84;99317.59;126647;1098;23327;-75
2020/12/05 09:34:00;;;;;;;22.98;15.28;;;;;;;11.02;61.67;99311.06;126691;1098;23379;-74
2020/12/05 09:36:28;;;;;;;38.10;22.85;;;;;;;11.05;61.52;99318.80;126597;1098;23324;-74
2020/12/05 09:38:56;;;;;;;25.90;20.23;;;;;;;11.07;61.82;99316.69;126716;1099;23345;-74
2020/12/05 09:41:24;;;;;;;26.68;17.40;;;;;;;11.09;61.69;99314.57;126731;1099;23328;-75
2020/12/05 09:43:53;;;;;;;27.67;17.90;;;;;;;11.09;61.85;99309.11;126819;1098;23339;-74
2020/12/05 09:46:21;;;;;;;21.10;13.43;;;;;;;11.08;61.51;99296.54;126713;1098;23395;-74
2020/12/05 09:48:49;;;;;;;21.62;15.25;;;;;;;11.07;61.59;99303.04;126742;1099;23332;-74
2020/12/05 09:51:18;;;;;;;26.07;17.23;;;;;;;11.06;61.57;99292.37;126830;1098;23333;-73
2020/12/05 09:53:46;;;;;;;27.65;17.85;;;;;;;11.02;61.04;99292.79;126739;1098;23393;-73
2020/12/05 09:56:14;;;;;;;25.10;17.30;;;;;;;11.02;61.29;99300.15;126678;1099;23463;-73
2020/12/05 09:58:42;;;;;;;30.12;18.70;;;;;;;11.00;61.48;99296.80;126769;1098;23396;-75
2020/12/05 10:01:10;;;;;;;22.48;14.60;;;;;;;10.98;60.99;99296.19;126744;1098;23332;-75
2020/12/05 10:03:39;;;;;;;30.68;21.35;;;;;;;10.95;61.36;99302.92;126519;1098;27119;-77
2020/12/05 10:06:08;;;;;;;25.40;18.90;;;;;;;10.96;61.34;99303.75;126560;1098;23769;-75
2020/12/05 10:08:37;;;;;;;23.83;14.55;;;;;;;10.95;61.99;99299.36;126695;1098;23325;-74
2020/12/05 10:11:05;;;;;;;19.90;12.82;;;;;;;10.93;61.44;99285.94;126716;1098;23790;-72
2020/12/05 10:13:33;;;;;;;35.30;27.67;;;;;;;10.95;61.74;99291.18;126647;1098;24801;-74
2020/12/05 10:16:01;;;;;;;28.73;20.92;;;;;;;10.94;61.77;99282.13;126735;1098;23390;-72
2020/12/05 10:18:29;;;;;;;24.95;15.68;;;;;;;10.96;62.00;99290.11;126706;1099;23393;-73
2020/12/05 10:20:58;;;;;;;21.70;14.97;;;;;;;10.94;61.69;99287.59;126617;1099;23444;-75
2020/12/05 10:23:26;;;;;;;22.15;15.63;;;;;;;10.95;61.96;99293.91;126584;1098;26826;-76
2020/12/05 10:25:54;;;;;;;22.90;15.60;;;;;;;10.94;61.40;99289.49;126496;1099;26437;-73
2020/12/05 10:28:23;;;;;;;24.72;16.35;;;;;;;10.95;62.03;99293.91;126687;1098;23382;-73
2020/12/05 10:30:51;;;;;;;20.97;15.63;;;;;;;10.96;61.73;99296.39;126656;1098;23339;-73
2020/12/05 10:33:19;;;;;;;23.75;15.15;;;;;;;10.98;61.73;99312.55;126647;1098;23382;-72
2020/12/05 10:35:48;;;;;;;24.67;16.15;;;;;;;10.98;61.78;99307.93;126693;1098;23395;-72
2020/12/05 10:38:16;;;;;;;30.20;18.98;;;;;;;11.02;62.19;99319.25;126707;1098;24925;-72
2020/12/05 10:40:44;;;;;;;57.57;42.00;;;;;;;11.07;62.04;99329.50;126769;1098;26788;-73
2020/12/05 10:43:12;;;;;;;47.03;23.45;;;;;;;11.10;62.22;99334.54;126814;1098;23328;-72
2020/12/05 10:45:40;;;;;;;46.00;24.47;;;;;;;11.14;61.88;99330.31;126569;1098;24915;-72
2020/12/05 10:48:08;;;;;;;28.80;18.40;;;;;;;11.16;61.69;99329.03;126756;1098;23331;-73
2020/12/05 10:50:36;;;;;;;27.62;15.28;;;;;;;11.18;61.76;99345.17;126742;1098;26847;-72
2020/12/05 10:53:05;;;;;;;22.35;14.80;;;;;;;11.19;61.95;99344.95;126697;1098;23395;-72
2020/12/05 10:55:33;;;;;;;25.57;16.73;;;;;;;11.21;61.51;99350.20;126716;1098;23321;-73
2020/12/05 10:58:05;;;;;;;56.73;31.82;;;;;;;11.22;61.64;99343.67;126779;1098;23485;-73
2020/12/05 11:00:33;;;;;;;34.25;22.05;;;;;;;11.23;61.65;99346.19;126727;1098;25153;-74
2020/12/05 11:03:02;;;;;;;30.43;19.73;;;;;;;11.24;61.43;99347.02;126786;1098;24808;-70
2020/12/05 11:05:30;;;;;;;21.50;15.25;;;;;;;11.25;61.04;99337.79;126678;1098;26847;-72
2020/12/05 11:07:59;;;;;;;22.83;14.13;;;;;;;11.26;61.22;99344.91;126575;1099;23533;-71
2020/12/05 11:10:27;;;;;;;19.17;11.85;;;;;;;11.27;61.14;99357.52;126627;1099;23469;-73
2020/12/05 11:12:56;;;;;;;24.72;14.30;;;;;;;11.29;61.75;99366.33;126679;1098;23397;-72
2020/12/05 11:15:24;;;;;;;23.20;13.53;;;;;;;11.32;61.57;99365.05;126626;1098;23328;-71
2020/12/05 11:17:53;;;;;;;22.25;15.13;;;;;;;11.35;61.81;99364.59;126612;1098;23425;-72
2020/12/05 11:20:22;;;;;;;27.75;15.93;;;;;;;11.33;61.75;99370.29;126669;1099;25191;-72
2020/12/05 11:22:51;;;;;;;19.40;14.13;;;;;;;11.35;61.23;99375.51;126735;1098;26823;-71
2020/12/05 11:25:19;;;;;;;19.92;14.90;;;;;;;11.35;61.22;99373.64;126564;1098;23428;-71
2020/12/05 11:27:48;;;;;;;21.75;15.35;;;;;;;11.33;60.85;99378.48;126518;1098;23375;-74
2020/12/05 11:30:16;;;;;;;20.33;14.10;;;;;;;11.33;61.22;99383.94;126560;1099;23327;-72
2020/12/05 11:32:44;;;;;;;25.57;17.30;;;;;;;11.32;61.11;99395.07;126775;1098;27834;-72